createdAt,value
2022-09-26T00:01:48.432Z,100870.84
2022-09-26T00:06:51.249Z,100908.34
2022-09-26T00:11:48.645Z,100896.50
2022-09-26T00:16:53.623Z,100954.09
2022-09-26T00:21:55.583Z,100923.38
2022-09-26T00:26:52.977Z,100879.13
2022-09-26T00:31:57.721Z,100934.25
2022-09-26T00:37:02.540Z,100844.91
2022-09-26T00:42:02.964Z,100922.53
2022-09-26T00:47:23.419Z,100890.22
2022-09-26T00:52:25.377Z,100810.00
2022-09-26T00:57:56.182Z,100821.81
2022-09-26T01:02:59.845Z,100847.72
2022-09-26T01:08:10.460Z,100897.63
2022-09-26T01:13:16.461Z,100848.78
2022-09-26T01:18:16.089Z,100879.63
2022-09-26T01:23:44.255Z,100806.88
2022-09-26T01:29:04.723Z,100875.25
2022-09-26T01:34:24.980Z,100825.25
2022-09-26T01:39:50.086Z,100833.34
2022-09-26T01:44:54.093Z,100832.50
2022-09-26T01:50:05.532Z,100826.22
2022-09-26T01:55:12.445Z,100859.56
2022-09-26T02:00:18.049Z,100849.91
2022-09-26T02:05:25.504Z,100814.84
2022-09-26T02:10:31.474Z,100820.25
2022-09-26T02:15:38.329Z,100867.31
2022-09-26T02:20:44.515Z,100846.75
2022-09-26T02:25:44.578Z,100854.59
2022-09-26T02:30:49.420Z,100777.50
2022-09-26T02:35:56.016Z,100874.78
2022-09-26T02:41:02.886Z,100794.66
2022-09-26T02:46:12.789Z,100841.03
2022-09-26T02:51:33.258Z,100805.38
2022-09-26T02:56:42.115Z,100812.25
2022-09-26T03:01:53.091Z,100816.94
2022-09-26T03:07:04.584Z,100845.44
2022-09-26T03:12:12.753Z,100885.81
2022-09-26T03:17:20.829Z,100881.25
2022-09-26T03:22:24.375Z,100881.97
2022-09-26T03:27:23.772Z,100850.16
2022-09-26T03:32:22.367Z,100827.22
2022-09-26T03:37:20.840Z,100880.97
2022-09-26T03:42:28.151Z,100803.53
2022-09-26T03:47:39.703Z,100867.88
2022-09-26T03:53:00.804Z,100884.53
2022-09-26T03:58:07.698Z,100872.56
2022-09-26T04:03:12.229Z,100875.31
2022-09-26T04:08:19.947Z,100836.63
2022-09-26T04:13:50.188Z,100861.19
2022-09-26T04:19:06.892Z,100769.97
2022-09-26T04:24:21.079Z,100828.38
2022-09-26T04:29:23.522Z,100837.22
2022-09-26T04:34:34.891Z,100768.75
2022-09-26T04:39:48.627Z,100745.09
2022-09-26T04:45:25.256Z,100817.44
2022-09-26T04:51:49.267Z,100742.25
2022-09-26T04:56:56.949Z,100856.38
2022-09-26T05:02:23.343Z,100860.88
2022-09-26T05:07:30.390Z,100841.75
2022-09-26T05:12:41.749Z,100820.63
2022-09-26T05:17:52.787Z,100814.38
2022-09-26T05:22:57.424Z,100783.53
2022-09-26T05:27:59.393Z,100860.06
2022-09-26T05:32:57.723Z,100822.75
2022-09-26T05:37:59.395Z,100812.78
2022-09-26T05:43:01.531Z,100745.03
2022-09-26T05:48:10.136Z,100764.13
2022-09-26T05:53:28.288Z,100840.00
2022-09-26T05:59:03.150Z,100827.13
2022-09-26T06:05:02.974Z,100774.88
2022-09-26T06:10:42.994Z,100834.22
2022-09-26T06:15:43.677Z,100839.16
2022-09-26T06:20:56.541Z,100745.19
2022-09-26T06:26:16.609Z,100746.44
2022-09-26T06:31:41.821Z,100852.22
2022-09-26T06:37:21.999Z,100794.44
2022-09-26T06:42:54.799Z,100826.91
2022-09-26T06:53:58.569Z,100757.13
2022-09-26T07:07:09.307Z,100873.28
2022-09-26T07:12:55.213Z,100863.72
2022-09-26T07:19:53.285Z,100859.75
2022-09-26T07:36:52.450Z,100816.75
2022-09-26T07:42:21.712Z,100824.78
2022-09-26T07:48:39.470Z,100803.41
2022-09-26T07:54:52.925Z,100766.22
2022-09-26T08:00:34.774Z,100816.81
2022-09-26T08:05:58.659Z,100816.09
2022-09-26T08:11:05.322Z,100783.06
2022-09-26T08:16:56.249Z,100765.16
2022-09-26T08:22:08.622Z,100803.16
2022-09-26T08:27:24.275Z,100715.69
2022-09-26T08:32:52.804Z,100724.78
2022-09-26T08:38:43.405Z,100788.84
2022-09-26T08:44:30.233Z,100798.72
2022-09-26T08:50:22.230Z,100732.72
2022-09-26T08:55:39.725Z,100774.09
2022-09-26T09:01:31.560Z,100714.78
2022-09-26T09:06:55.647Z,100672.41
2022-09-26T09:12:09.046Z,100688.22
2022-09-26T09:17:30.335Z,100722.38
2022-09-26T09:23:52.127Z,100700.78
2022-09-26T09:29:42.224Z,100713.44
2022-09-26T09:35:38.726Z,100648.59
2022-09-26T09:41:23.765Z,100687.59
2022-09-26T09:46:39.341Z,100633.63
2022-09-26T09:52:10.988Z,100670.16
2022-09-26T09:57:41.388Z,100634.53
2022-09-26T10:03:02.560Z,100690.16
2022-09-26T10:08:19.817Z,100693.31
2022-09-26T10:14:49.250Z,100612.16
2022-09-26T10:28:15.845Z,100608.66
2022-09-26T10:54:31.567Z,100629.66
2022-09-26T11:06:38.316Z,100571.88
2022-09-26T11:38:22.807Z,100558.69
2022-09-26T11:51:48.258Z,100518.91
2022-09-26T11:57:10.125Z,100564.97
2022-09-26T12:03:18.006Z,100565.06
2022-09-26T12:08:49.637Z,100571.88
2022-09-26T12:14:54.375Z,100517.16
2022-09-26T12:20:30.658Z,100556.13
2022-09-26T12:26:14.226Z,100544.50
2022-09-26T12:31:51.381Z,100456.19
2022-09-26T12:49:22.331Z,100500.09
2022-09-26T12:55:20.766Z,100535.00
2022-09-26T13:07:24.444Z,100423.41
2022-09-26T13:12:57.851Z,100472.38
2022-09-26T13:18:19.214Z,100489.91
2022-09-26T13:23:40.769Z,100447.22
2022-09-26T13:29:18.538Z,100491.81
2022-09-26T13:34:57.948Z,100472.84
2022-09-26T13:40:11.407Z,100411.63
2022-09-26T13:45:42.451Z,100480.38
2022-09-26T13:50:59.634Z,100406.00
2022-09-26T13:56:41.375Z,100479.53
2022-09-26T14:02:23.062Z,100407.84
2022-09-26T14:08:08.333Z,100380.97
2022-09-26T14:13:37.654Z,100403.44
2022-09-26T14:19:03.730Z,100465.56
2022-09-26T14:25:38.328Z,100461.09
2022-09-26T14:31:11.886Z,100371.88
2022-09-26T14:36:48.215Z,100401.19
2022-09-26T14:41:54.174Z,100434.75
2022-09-26T14:47:29.618Z,100352.22
2022-09-26T14:52:49.373Z,100385.75
2022-09-26T14:58:03.189Z,100426.88
2022-09-26T15:03:24.257Z,100436.06
2022-09-26T15:09:01.841Z,100352.06
2022-09-26T15:14:20.795Z,100408.91
2022-09-26T15:19:32.968Z,100333.50
2022-09-26T15:24:37.239Z,100423.03
2022-09-26T15:29:53.996Z,100410.94
2022-09-26T15:35:09.671Z,100345.91
2022-09-26T15:40:19.453Z,100398.78
2022-09-26T15:46:08.904Z,100409.97
2022-09-26T15:51:25.448Z,100370.56
2022-09-26T15:56:54.518Z,100359.47
2022-09-26T16:02:32.069Z,100320.88
2022-09-26T16:07:52.804Z,100363.41
2022-09-26T16:13:00.928Z,100354.03
2022-09-26T16:18:10.236Z,100320.63
2022-09-26T16:23:47.789Z,100389.63
2022-09-26T16:29:11.241Z,100376.22
2022-09-26T16:40:30.641Z,100400.97
2022-09-26T16:58:39.619Z,100402.78
2022-09-26T17:04:19.126Z,100331.69
2022-09-26T17:09:54.085Z,100315.94
2022-09-26T17:15:32.677Z,100424.84
2022-09-26T17:35:40.925Z,100371.31
2022-09-26T17:47:14.611Z,100398.28
2022-09-26T17:59:55.076Z,100405.66
2022-09-26T18:05:19.040Z,100412.19
2022-09-26T18:10:29.178Z,100330.97
2022-09-26T18:15:38.336Z,100378.19
2022-09-26T18:20:48.916Z,100384.56
2022-09-26T18:26:03.391Z,100331.59
2022-09-26T18:31:10.995Z,100377.53
2022-09-26T18:36:26.401Z,100388.41
2022-09-26T18:41:33.004Z,100341.50
2022-09-26T18:47:05.291Z,100306.97
2022-09-26T18:52:18.740Z,100293.59
2022-09-26T18:58:00.046Z,100355.72
2022-09-26T19:15:01.448Z,100323.41
2022-09-26T19:20:15.114Z,100291.91
2022-09-26T19:25:37.887Z,100301.13
2022-09-26T22:26:57.070Z,100133.56
2022-09-26T22:52:33.519Z,100206.59
2022-09-26T23:18:07.272Z,100205.78
2022-09-26T23:30:12.322Z,100110.84
